createdAt,value
2023-01-12T00:00:00.317Z,28.80
2023-01-12T00:02:28.660Z,29.92
2023-01-12T00:04:56.997Z,28.67
2023-01-12T00:07:25.017Z,28.45
2023-01-12T00:09:53.065Z,28.27
2023-01-12T00:12:21.223Z,28.08
2023-01-12T00:14:50.619Z,29.05
2023-01-12T00:17:19.677Z,28.27
2023-01-12T00:19:47.787Z,29.00
2023-01-12T00:22:22.817Z,30.20
2023-01-12T00:24:58.028Z,29.95
2023-01-12T00:27:30.627Z,29.48
2023-01-12T00:30:17.494Z,30.73
2023-01-12T00:32:55.529Z,30.88
2023-01-12T00:35:28.539Z,30.60
2023-01-12T00:37:56.791Z,31.50
2023-01-12T00:40:25.089Z,31.23
2023-01-12T00:43:10.699Z,30.83
2023-01-12T00:45:40.523Z,29.98
2023-01-12T00:48:12.798Z,30.00
2023-01-12T00:50:40.958Z,30.52
2023-01-12T00:53:09.143Z,29.58
2023-01-12T00:55:37.625Z,30.45
2023-01-12T00:58:05.937Z,29.52
2023-01-12T01:00:34.351Z,29.10
2023-01-12T01:03:04.248Z,29.48
2023-01-12T01:05:32.594Z,30.55
2023-01-12T01:08:05.105Z,29.35
2023-01-12T01:10:33.813Z,28.83
2023-01-12T01:13:02.005Z,29.60
2023-01-12T01:15:33.297Z,29.90
2023-01-12T01:18:26.043Z,28.70
2023-01-12T01:20:59.349Z,27.63
2023-01-12T01:23:29.832Z,28.63
2023-01-12T01:26:04.401Z,28.63
2023-01-12T01:28:32.961Z,28.38
2023-01-12T01:31:05.384Z,27.52
2023-01-12T01:33:34.063Z,26.58
2023-01-12T01:36:04.082Z,26.15
2023-01-12T01:38:32.239Z,26.98
2023-01-12T01:41:00.790Z,26.83
2023-01-12T01:43:30.967Z,26.50
2023-01-12T01:46:04.416Z,26.10
2023-01-12T01:48:35.416Z,25.80
2023-01-12T01:51:10.083Z,25.90
2023-01-12T01:53:41.168Z,25.38
2023-01-12T01:56:12.689Z,24.88
2023-01-12T01:58:44.850Z,25.38
2023-01-12T02:01:13.446Z,25.30
2023-01-12T02:03:42.288Z,24.58
2023-01-12T02:06:12.041Z,23.95
2023-01-12T02:08:47.233Z,25.65
2023-01-12T02:11:30.597Z,25.05
2023-01-12T02:14:16.451Z,25.42
2023-01-12T02:16:59.614Z,25.52
2023-01-12T02:19:44.009Z,25.83
2023-01-12T02:22:39.746Z,25.67
2023-01-12T02:25:39.633Z,26.38
2023-01-12T02:28:27.769Z,25.92
2023-01-12T02:31:23.058Z,26.75
2023-01-12T02:34:02.293Z,26.65
2023-01-12T02:36:37.864Z,25.35
2023-01-12T02:39:12.154Z,25.05
2023-01-12T02:42:06.328Z,25.13
2023-01-12T02:44:39.410Z,24.98
2023-01-12T02:47:15.395Z,24.08
2023-01-12T02:49:50.493Z,25.75
2023-01-12T02:52:22.827Z,25.33
2023-01-12T02:54:52.706Z,25.75
2023-01-12T02:57:24.001Z,25.58
2023-01-12T02:59:53.594Z,25.33
2023-01-12T03:02:25.943Z,23.55
2023-01-12T03:04:54.328Z,23.55
2023-01-12T03:07:47.062Z,23.13
2023-01-12T03:10:42.252Z,24.15
2023-01-12T03:13:15.954Z,23.20
2023-01-12T03:15:48.488Z,23.27
2023-01-12T03:18:21.321Z,23.58
2023-01-12T03:20:54.708Z,23.73
2023-01-12T03:23:31.965Z,23.90
2023-01-12T03:26:03.635Z,24.08
2023-01-12T03:28:35.764Z,23.45
2023-01-12T03:31:19.013Z,23.60
2023-01-12T03:33:48.913Z,24.08
2023-01-12T03:36:22.630Z,23.23
2023-01-12T03:39:00.722Z,24.17
2023-01-12T03:41:36.691Z,23.35
2023-01-12T03:44:12.919Z,22.90
2023-01-12T03:46:52.720Z,23.17
2023-01-12T03:49:28.817Z,23.63
2023-01-12T03:51:59.032Z,23.05
2023-01-12T03:54:32.273Z,23.33
2023-01-12T03:57:02.874Z,23.23
2023-01-12T03:59:31.692Z,23.17
2023-01-12T04:02:02.679Z,23.45
2023-01-12T04:04:41.793Z,23.80
2023-01-12T04:07:10.653Z,22.83
2023-01-12T04:09:39.071Z,23.50
2023-01-12T04:12:14.103Z,22.70
2023-01-12T04:14:46.829Z,22.55
2023-01-12T04:17:50.181Z,22.35
2023-01-12T04:20:20.491Z,21.85
2023-01-12T04:22:51.825Z,21.30
2023-01-12T04:25:24.296Z,22.13
2023-01-12T04:27:53.575Z,21.73
2023-01-12T04:30:27.299Z,21.02
2023-01-12T04:32:56.499Z,21.00
2023-01-12T04:35:27.929Z,21.33
2023-01-12T04:38:00.816Z,21.08
2023-01-12T04:40:30.140Z,20.08
2023-01-12T04:43:12.643Z,20.10
2023-01-12T04:45:44.109Z,20.23
2023-01-12T04:48:17.277Z,19.95
2023-01-12T04:50:47.314Z,19.27
2023-01-12T04:53:18.789Z,19.65
2023-01-12T04:55:48.081Z,18.95
2023-01-12T04:58:17.096Z,18.98
2023-01-12T05:01:01.436Z,19.17
2023-01-12T05:03:32.417Z,18.63
2023-01-12T05:06:08.980Z,18.63
2023-01-12T05:08:54.782Z,18.13
2023-01-12T05:11:29.430Z,17.42
2023-01-12T05:14:00.369Z,17.50
2023-01-12T05:16:32.181Z,17.55
2023-01-12T05:19:00.477Z,17.42
2023-01-12T05:21:45.393Z,17.17
2023-01-12T05:24:13.926Z,17.30
2023-01-12T05:26:44.840Z,17.00
2023-01-12T05:29:13.880Z,16.80
2023-01-12T05:31:48.874Z,17.13
2023-01-12T05:38:16.772Z,16.85
2023-01-12T05:51:10.385Z,16.23
2023-01-12T05:53:40.085Z,16.30
2023-01-12T05:56:10.463Z,16.77
2023-01-12T05:58:41.126Z,16.90
2023-01-12T06:01:10.647Z,17.23
2023-01-12T06:03:39.555Z,17.77
2023-01-12T06:06:09.755Z,17.98
2023-01-12T06:08:39.409Z,19.17
2023-01-12T06:11:29.383Z,19.25
2023-01-12T06:14:00.115Z,19.27
2023-01-12T06:16:28.899Z,18.70
2023-01-12T06:18:57.365Z,19.10
2023-01-12T06:21:26.010Z,18.58
2023-01-12T06:23:55.660Z,20.52
2023-01-12T06:26:23.705Z,19.30
2023-01-12T06:28:53.114Z,19.05
2023-01-12T06:31:21.345Z,19.50
2023-01-12T06:33:49.600Z,18.60
2023-01-12T06:36:17.801Z,18.50
2023-01-12T06:38:47.096Z,18.15
2023-01-12T06:41:30.580Z,19.00
2023-01-12T06:43:59.273Z,19.30
2023-01-12T06:46:28.769Z,19.30
2023-01-12T06:49:00.297Z,20.05
2023-01-12T06:51:28.497Z,19.98
2023-01-12T06:53:56.642Z,19.25
2023-01-12T06:56:26.043Z,19.70
2023-01-12T06:58:54.043Z,19.60
2023-01-12T07:01:22.173Z,20.00
2023-01-12T07:03:50.677Z,20.00
2023-01-12T07:06:18.844Z,20.75
2023-01-12T07:08:48.874Z,21.40
2023-01-12T07:11:16.969Z,20.80
2023-01-12T07:13:49.454Z,20.80
2023-01-12T07:16:17.746Z,20.77
2023-01-12T07:18:48.217Z,19.92
2023-01-12T07:21:16.985Z,19.95
2023-01-12T07:23:45.824Z,20.38
2023-01-12T07:26:14.181Z,19.70
2023-01-12T07:28:42.896Z,20.33
2023-01-12T07:31:12.629Z,20.02
2023-01-12T07:33:40.815Z,20.80
2023-01-12T07:36:09.272Z,21.33
2023-01-12T07:38:38.169Z,20.33
2023-01-12T07:41:26.820Z,20.67
2023-01-12T07:43:54.943Z,21.00
2023-01-12T07:46:24.753Z,21.55
2023-01-12T07:48:52.789Z,21.25
2023-01-12T07:51:20.817Z,22.05
2023-01-12T07:53:51.966Z,21.48
2023-01-12T07:56:20.283Z,21.58
2023-01-12T07:58:49.658Z,21.45
2023-01-12T08:01:17.675Z,21.42
2023-01-12T08:03:47.489Z,21.02
2023-01-12T08:06:18.468Z,21.65
2023-01-12T08:08:46.534Z,21.58
2023-01-12T08:11:14.877Z,20.85
2023-01-12T08:13:42.868Z,21.05
2023-01-12T08:16:18.041Z,22.02
2023-01-12T08:18:53.299Z,22.65
2023-01-12T08:21:24.121Z,22.17
2023-01-12T08:23:59.953Z,22.98
2023-01-12T08:26:33.951Z,21.90
2023-01-12T08:29:09.761Z,22.25
2023-01-12T08:31:42.403Z,21.80
2023-01-12T08:34:12.124Z,22.00
2023-01-12T08:36:44.391Z,22.73
2023-01-12T08:39:14.791Z,22.13
2023-01-12T08:41:45.307Z,21.42
2023-01-12T08:44:13.531Z,21.35
2023-01-12T08:46:48.716Z,22.85
2023-01-12T08:49:20.815Z,22.20
2023-01-12T08:51:55.596Z,22.40
2023-01-12T08:54:25.415Z,23.02
2023-01-12T08:56:54.804Z,23.45
2023-01-12T08:59:23.029Z,22.70
2023-01-12T09:01:51.141Z,22.73
2023-01-12T09:04:23.208Z,23.92
2023-01-12T09:06:51.363Z,24.23
2023-01-12T09:09:23.110Z,23.70
2023-01-12T09:11:51.477Z,23.85
2023-01-12T09:14:21.930Z,23.40
2023-01-12T09:16:50.265Z,23.55
2023-01-12T09:19:18.984Z,23.60
2023-01-12T09:21:48.618Z,23.90
2023-01-12T09:24:16.813Z,23.63
2023-01-12T09:26:47.041Z,24.25
2023-01-12T09:29:16.124Z,23.48
2023-01-12T09:31:46.205Z,24.15
2023-01-12T09:34:14.490Z,22.27
2023-01-12T09:36:44.873Z,20.45
2023-01-12T09:39:32.769Z,20.67
2023-01-12T09:42:32.966Z,20.25
2023-01-12T09:45:18.703Z,19.23
2023-01-12T09:47:56.396Z,20.05
2023-01-12T09:50:29.163Z,19.45
2023-01-12T09:53:01.756Z,18.80
2023-01-12T09:55:41.343Z,19.00
2023-01-12T09:58:27.212Z,18.35
2023-01-12T10:00:58.435Z,19.10
2023-01-12T10:03:31.857Z,20.50
2023-01-12T10:06:14.261Z,20.83
2023-01-12T10:08:46.678Z,20.65
2023-01-12T10:11:20.982Z,20.70
2023-01-12T10:14:21.333Z,20.80
2023-01-12T10:17:01.610Z,21.55
2023-01-12T10:19:38.090Z,20.52
2023-01-12T10:22:37.032Z,20.83
2023-01-12T10:25:32.136Z,20.35
2023-01-12T10:28:07.336Z,21.45
2023-01-12T10:30:38.054Z,21.73
2023-01-12T10:33:15.120Z,20.83
2023-01-12T10:35:51.444Z,21.75
2023-01-12T10:38:25.472Z,22.02
2023-01-12T10:41:13.363Z,22.13
2023-01-12T10:43:47.261Z,20.98
2023-01-12T10:46:17.218Z,21.80
2023-01-12T10:48:47.703Z,21.58
2023-01-12T10:51:38.417Z,22.05
2023-01-12T10:54:12.723Z,21.58
2023-01-12T10:56:44.770Z,22.58
2023-01-12T10:59:21.895Z,21.90
2023-01-12T11:01:53.541Z,21.45
2023-01-12T11:04:23.236Z,22.20
2023-01-12T11:07:11.266Z,21.58
2023-01-12T11:09:43.470Z,22.00
2023-01-12T11:12:29.713Z,22.17
2023-01-12T11:15:05.055Z,22.30
2023-01-12T11:17:48.834Z,22.35
2023-01-12T11:20:22.299Z,23.40
2023-01-12T11:22:57.957Z,24.00
2023-01-12T11:25:29.058Z,22.67
2023-01-12T11:28:01.881Z,23.15
2023-01-12T11:30:37.752Z,24.25
2023-01-12T11:33:13.568Z,22.67
2023-01-12T11:35:50.051Z,23.27
2023-01-12T11:38:25.307Z,22.30
2023-01-12T11:40:56.692Z,23.20
2023-01-12T11:43:50.987Z,23.95
2023-01-12T11:46:27.958Z,23.20
2023-01-12T11:49:11.812Z,22.77
2023-01-12T11:51:40.653Z,22.55
2023-01-12T11:54:13.539Z,22.40
2023-01-12T11:57:03.920Z,23.40
2023-01-12T11:59:41.850Z,23.17
2023-01-12T12:02:33.429Z,23.58
2023-01-12T12:05:12.626Z,23.20
2023-01-12T12:07:55.205Z,21.65
2023-01-12T12:10:31.002Z,22.67
2023-01-12T12:13:27.953Z,21.90
2023-01-12T12:16:07.163Z,21.33
2023-01-12T12:18:50.227Z,20.15
2023-01-12T12:21:39.319Z,18.95
2023-01-12T12:24:21.345Z,18.42
2023-01-12T12:26:59.045Z,18.42
2023-01-12T12:29:46.312Z,17.48
2023-01-12T12:32:27.957Z,16.30
2023-01-12T12:35:25.748Z,16.67
2023-01-12T12:38:13.060Z,16.08
2023-01-12T12:41:10.591Z,15.98
2023-01-12T12:43:59.168Z,16.00
2023-01-12T12:46:36.992Z,15.93
2023-01-12T12:49:09.659Z,15.35
2023-01-12T12:51:41.637Z,14.48
2023-01-12T12:54:17.189Z,15.27
2023-01-12T12:56:46.867Z,15.20
2023-01-12T12:59:54.245Z,15.90
2023-01-12T13:02:40.965Z,16.00
2023-01-12T13:05:13.131Z,15.70
2023-01-12T13:07:52.434Z,15.18
2023-01-12T13:10:27.979Z,15.23
2023-01-12T13:13:05.059Z,15.23
2023-01-12T13:15:37.123Z,14.57
2023-01-12T13:18:07.080Z,15.50
2023-01-12T13:20:52.469Z,15.20
2023-01-12T13:23:47.903Z,14.93
2023-01-12T13:26:44.075Z,15.32
2023-01-12T13:29:44.226Z,15.70
2023-01-12T13:32:45.878Z,15.13
2023-01-12T13:35:54.398Z,14.80
2023-01-12T13:38:43.912Z,15.02
2023-01-12T13:41:39.245Z,14.23
2023-01-12T13:44:09.919Z,14.52
2023-01-12T13:46:43.711Z,14.73
2023-01-12T13:49:27.849Z,16.27
2023-01-12T13:52:01.030Z,15.73
2023-01-12T13:54:30.048Z,16.15
2023-01-12T13:57:02.863Z,16.40
2023-01-12T13:59:31.072Z,16.20
2023-01-12T14:01:59.836Z,17.00
2023-01-12T14:05:00.867Z,16.65
2023-01-12T14:07:47.347Z,16.55
2023-01-12T14:10:25.441Z,16.77
2023-01-12T14:13:21.640Z,16.67
2023-01-12T14:16:07.254Z,16.67
2023-01-12T14:18:44.558Z,17.27
2023-01-12T14:21:23.952Z,16.52
2023-01-12T14:23:52.424Z,16.40
2023-01-12T14:26:31.771Z,18.02
2023-01-12T14:29:01.444Z,17.70
2023-01-12T14:31:35.680Z,17.33
2023-01-12T14:34:06.138Z,17.70
2023-01-12T14:36:38.578Z,17.33
2023-01-12T14:39:11.675Z,16.80
2023-01-12T14:41:57.349Z,16.73
2023-01-12T14:44:45.086Z,17.27
2023-01-12T14:47:24.850Z,16.65
2023-01-12T14:49:52.863Z,16.75
2023-01-12T14:52:27.567Z,16.85
2023-01-12T14:54:55.601Z,16.77
2023-01-12T14:57:30.930Z,16.73
2023-01-12T15:00:02.485Z,16.92
2023-01-12T15:02:34.139Z,17.60
2023-01-12T15:05:05.685Z,17.08
2023-01-12T15:07:36.949Z,16.50
2023-01-12T15:10:27.728Z,16.48
2023-01-12T15:12:57.114Z,16.30
2023-01-12T15:15:48.698Z,16.75
2023-01-12T15:18:37.543Z,16.35
2023-01-12T15:21:26.503Z,16.25
2023-01-12T15:24:12.193Z,16.35
2023-01-12T15:26:40.613Z,16.63
2023-01-12T15:29:09.920Z,16.30
2023-01-12T15:31:40.401Z,16.50
2023-01-12T15:34:10.713Z,16.10
2023-01-12T15:36:38.957Z,16.38
2023-01-12T15:39:07.220Z,16.15
2023-01-12T15:41:52.962Z,16.13
2023-01-12T15:44:22.650Z,16.02
2023-01-12T15:46:52.642Z,15.75
2023-01-12T15:49:21.648Z,15.73
2023-01-12T15:51:52.157Z,16.02
2023-01-12T15:54:21.703Z,16.20
2023-01-12T15:56:50.207Z,15.80
2023-01-12T15:59:18.417Z,15.82
2023-01-12T16:01:49.499Z,16.17
2023-01-12T16:04:42.229Z,16.75
2023-01-12T16:07:10.763Z,16.23
2023-01-12T16:09:41.323Z,16.38
2023-01-12T16:12:16.015Z,15.90
2023-01-12T16:14:59.008Z,15.82
2023-01-12T16:17:29.032Z,15.70
2023-01-12T16:19:58.699Z,15.25
2023-01-12T16:22:28.217Z,15.70
2023-01-12T16:24:57.421Z,16.15
2023-01-12T16:27:27.210Z,15.88
2023-01-12T16:29:55.624Z,15.80
2023-01-12T16:32:24.810Z,15.35
2023-01-12T16:34:53.491Z,14.68
2023-01-12T16:37:27.416Z,14.30
2023-01-12T16:39:56.034Z,13.93
2023-01-12T16:42:24.233Z,14.10
2023-01-12T16:44:52.495Z,14.18
2023-01-12T16:47:21.674Z,13.90
2023-01-12T16:49:50.859Z,13.38
2023-01-12T16:52:21.963Z,13.57
2023-01-12T16:54:52.532Z,14.98
2023-01-12T16:57:20.838Z,14.73
2023-01-12T16:59:51.347Z,14.95
2023-01-12T17:02:19.985Z,14.98
2023-01-12T17:04:52.079Z,15.50
2023-01-12T17:07:21.138Z,15.35
2023-01-12T17:09:49.452Z,15.68
2023-01-12T17:12:19.337Z,16.10
2023-01-12T17:14:47.749Z,16.40
2023-01-12T17:17:16.393Z,15.82
2023-01-12T17:19:45.289Z,16.40
2023-01-12T17:22:14.494Z,16.17
2023-01-12T17:24:43.353Z,16.27
2023-01-12T17:27:12.166Z,15.55
2023-01-12T17:29:42.080Z,16.00
2023-01-12T17:32:11.288Z,15.90
2023-01-12T17:34:43.264Z,16.92
2023-01-12T17:37:12.429Z,16.83
2023-01-12T17:39:43.208Z,17.50
2023-01-12T17:53:18.199Z,17.10
2023-01-12T17:55:48.737Z,16.83
2023-01-12T17:58:18.934Z,17.70
2023-01-12T18:00:47.194Z,17.83
2023-01-12T18:03:15.630Z,17.60
2023-01-12T18:05:47.093Z,16.92
2023-01-12T18:08:21.591Z,17.45
2023-01-12T18:10:49.846Z,17.80
2023-01-12T18:13:20.758Z,17.73
2023-01-12T18:15:49.486Z,16.48
2023-01-12T18:18:21.657Z,16.63
2023-01-12T18:20:52.371Z,17.15
2023-01-12T18:23:22.145Z,16.92
2023-01-12T18:25:52.295Z,16.83
2023-01-12T18:28:29.399Z,17.60
2023-01-12T18:31:04.927Z,17.23
2023-01-12T18:33:35.648Z,16.67
2023-01-12T18:36:10.776Z,17.35
2023-01-12T18:38:50.346Z,17.55
2023-01-12T18:41:40.772Z,17.90
2023-01-12T18:44:21.899Z,17.77
2023-01-12T18:47:15.706Z,17.35
2023-01-12T18:50:04.316Z,17.85
2023-01-12T18:52:54.424Z,17.63
2023-01-12T18:55:26.785Z,17.85
2023-01-12T18:57:57.533Z,17.77
2023-01-12T19:00:34.375Z,17.63
2023-01-12T19:03:04.769Z,17.92
2023-01-12T19:05:44.413Z,17.98
2023-01-12T19:08:41.732Z,18.02
2023-01-12T19:11:25.165Z,17.88
2023-01-12T19:14:13.162Z,19.00
2023-01-12T19:16:59.397Z,18.33
2023-01-12T19:19:29.578Z,18.08
2023-01-12T19:22:15.237Z,18.40
2023-01-12T19:25:01.075Z,18.75
2023-01-12T19:27:48.361Z,18.50
2023-01-12T19:30:18.364Z,17.98
2023-01-12T19:32:47.965Z,18.15
2023-01-12T19:36:05.930Z,18.15
2023-01-12T19:49:40.178Z,17.85
2023-01-12T19:52:10.142Z,17.00
2023-01-12T19:54:44.280Z,16.52
2023-01-12T19:57:27.145Z,16.17
2023-01-12T20:00:32.549Z,16.00
2023-01-12T20:06:37.742Z,15.45
2023-01-12T20:09:05.718Z,14.93
2023-01-12T20:11:33.969Z,15.68
2023-01-12T20:14:02.728Z,14.50
2023-01-12T20:16:33.896Z,14.38
2023-01-12T20:19:04.402Z,14.52
2023-01-12T20:21:32.786Z,14.90
2023-01-12T20:24:04.706Z,15.77
2023-01-12T20:26:33.643Z,15.65
2023-01-12T20:29:01.653Z,16.40
2023-01-12T20:31:33.201Z,15.80
2023-01-12T20:34:01.661Z,16.38
2023-01-12T20:36:29.924Z,16.38
2023-01-12T20:38:59.067Z,16.48
2023-01-12T20:41:28.551Z,16.38
2023-01-12T20:43:56.677Z,16.75
2023-01-12T20:46:25.171Z,17.48
2023-01-12T20:48:53.393Z,17.55
2023-01-12T20:51:21.585Z,17.05
2023-01-12T20:53:50.715Z,17.38
2023-01-12T20:56:20.829Z,16.75
2023-01-12T20:58:50.293Z,17.70
2023-01-12T21:01:22.374Z,18.15
2023-01-12T21:03:53.429Z,18.00
2023-01-12T21:06:21.490Z,17.80
2023-01-12T21:08:49.830Z,18.52
2023-01-12T21:11:19.957Z,17.90
2023-01-12T21:13:49.600Z,17.83
2023-01-12T21:16:20.041Z,19.38
2023-01-12T21:18:50.276Z,19.05
2023-01-12T21:21:18.446Z,18.45
2023-01-12T21:23:46.462Z,18.48
2023-01-12T21:26:14.697Z,19.95
2023-01-12T21:28:42.982Z,19.83
2023-01-12T21:31:13.650Z,20.35
2023-01-12T21:33:41.787Z,21.20
2023-01-12T21:36:18.294Z,21.00
2023-01-12T21:38:50.836Z,20.98
2023-01-12T21:41:21.247Z,20.98
2023-01-12T21:43:49.300Z,20.88
2023-01-12T21:46:19.574Z,21.65
2023-01-12T21:48:47.872Z,22.35
2023-01-12T21:51:18.070Z,22.77
2023-01-12T21:53:46.072Z,22.80
2023-01-12T21:56:14.608Z,24.05
2023-01-12T21:58:42.667Z,23.05
2023-01-12T22:01:12.595Z,23.52
2023-01-12T22:03:42.853Z,23.33
2023-01-12T22:06:12.554Z,22.55
2023-01-12T22:08:42.236Z,22.77
2023-01-12T22:11:12.124Z,22.77
2023-01-12T22:13:40.962Z,21.40
2023-01-12T22:16:10.929Z,21.92
2023-01-12T22:18:46.434Z,22.15
2023-01-12T22:21:14.814Z,23.15
2023-01-12T22:23:43.500Z,24.33
2023-01-12T22:26:13.965Z,24.23
2023-01-12T22:28:43.690Z,25.25
2023-01-12T22:31:13.650Z,24.13
2023-01-12T22:33:45.454Z,25.27
2023-01-12T22:36:16.272Z,25.65
2023-01-12T22:38:44.284Z,25.05
2023-01-12T22:41:13.712Z,26.40
2023-01-12T22:43:41.750Z,25.85
2023-01-12T22:46:17.214Z,26.58
2023-01-12T22:48:49.446Z,27.25
2023-01-12T22:51:17.847Z,26.77
2023-01-12T22:53:46.024Z,26.25
2023-01-12T22:56:15.304Z,25.60
2023-01-12T22:58:47.259Z,25.80
2023-01-12T23:01:16.562Z,26.85
2023-01-12T23:03:47.717Z,23.77
2023-01-12T23:06:17.696Z,23.45
2023-01-12T23:08:46.336Z,23.00
2023-01-12T23:11:16.309Z,23.90
2023-01-12T23:13:45.865Z,23.65
2023-01-12T23:16:16.705Z,21.50
2023-01-12T23:18:48.099Z,22.88
2023-01-12T23:21:18.342Z,22.80
2023-01-12T23:23:47.671Z,21.50
2023-01-12T23:26:19.836Z,21.05
2023-01-12T23:28:50.546Z,20.10
2023-01-12T23:31:22.211Z,20.98
2023-01-12T23:33:55.045Z,20.17
2023-01-12T23:36:26.078Z,21.88
2023-01-12T23:38:54.889Z,19.80
2023-01-12T23:41:25.307Z,21.23
2023-01-12T23:43:56.289Z,21.98
2023-01-12T23:46:27.300Z,22.38
2023-01-12T23:48:58.804Z,21.23
2023-01-12T23:51:28.742Z,24.15
2023-01-12T23:53:59.326Z,22.83
2023-01-12T23:56:28.909Z,23.38
2023-01-12T23:58:57.416Z,25.55
